sensor_id;sensor_type;location;lat;lon;timestamp;P1;durP1;ratioP1;P2;durP2;ratioP2
19551;SDS011;9921;47.186;9.778;2023-06-26T00:00:53;0.00;;;0.00;;
19551;SDS011;9921;47.186;9.778;2023-06-26T00:03:20;0.00;;;0.00;;
19551;SDS011;9921;47.186;9.778;2023-06-26T00:05:48;0.00;;;0.00;;
19551;SDS011;9921;47.186;9.778;2023-06-26T00:08:15;0.00;;;0.00;;
19551;SDS011;9921;47.186;9.778;2023-06-26T00:10:42;0.00;;;0.00;;
19551;SDS011;9921;47.186;9.778;2023-06-26T00:13:09;0.00;;;0.00;;
19551;SDS011;9921;47.186;9.778;2023-06-26T00:15:38;0.00;;;0.00;;
19551;SDS011;9921;47.186;9.778;2023-06-26T00:18:05;0.00;;;0.00;;
19551;SDS011;9921;47.186;9.778;2023-06-26T00:20:32;0.00;;;0.00;;
19551;SDS011;9921;47.186;9.778;2023-06-26T00:22:59;0.00;;;0.00;;
19551;SDS011;9921;47.186;9.778;2023-06-26T00:25:26;0.00;;;0.00;;
19551;SDS011;9921;47.186;9.778;2023-06-26T00:27:53;0.00;;;0.00;;
19551;SDS011;9921;47.186;9.778;2023-06-26T00:30:19;0.00;;;0.00;;
19551;SDS011;9921;47.186;9.778;2023-06-26T00:32:48;0.00;;;0.00;;
19551;SDS011;9921;47.186;9.778;2023-06-26T00:35:15;0.00;;;0.00;;
19551;SDS011;9921;47.186;9.778;2023-06-26T00:37:41;0.00;;;0.00;;
19551;SDS011;9921;47.186;9.778;2023-06-26T00:40:09;0.00;;;0.00;;
19551;SDS011;9921;47.186;9.778;2023-06-26T00:42:36;0.00;;;0.00;;
19551;SDS011;9921;47.186;9.778;2023-06-26T00:45:03;0.00;;;0.00;;
19551;SDS011;9921;47.186;9.778;2023-06-26T00:47:30;0.00;;;0.00;;
19551;SDS011;9921;47.186;9.778;2023-06-26T00:49:59;0.00;;;0.00;;
19551;SDS011;9921;47.186;9.778;2023-06-26T00:52:26;0.00;;;0.00;;
19551;SDS011;9921;47.186;9.778;2023-06-26T00:54:53;0.00;;;0.00;;
19551;SDS011;9921;47.186;9.778;2023-06-26T00:57:20;0.00;;;0.00;;
19551;SDS011;9921;47.186;9.778;2023-06-26T00:59:47;0.00;;;0.00;;
19551;SDS011;9921;47.186;9.778;2023-06-26T01:02:14;0.00;;;0.00;;
19551;SDS011;9921;47.186;9.778;2023-06-26T01:04:42;0.00;;;0.00;;
19551;SDS011;9921;47.186;9.778;2023-06-26T01:07:13;0.00;;;0.00;;
19551;SDS011;9921;47.186;9.778;2023-06-26T01:09:41;0.00;;;0.00;;
19551;SDS011;9921;47.186;9.778;2023-06-26T01:12:08;0.00;;;0.00;;
19551;SDS011;9921;47.186;9.778;2023-06-26T01:14:36;0.00;;;0.00;;
19551;SDS011;9921;47.186;9.778;2023-06-26T01:17:03;0.00;;;0.00;;
19551;SDS011;9921;47.186;9.778;2023-06-26T01:19:30;0.00;;;0.00;;
19551;SDS011;9921;47.186;9.778;2023-06-26T01:22:00;0.00;;;0.00;;
19551;SDS011;9921;47.186;9.778;2023-06-26T01:24:42;0.00;;;0.00;;
19551;SDS011;9921;47.186;9.778;2023-06-26T01:27:21;0.00;;;0.00;;
19551;SDS011;9921;47.186;9.778;2023-06-26T01:29:49;0.00;;;0.00;;
19551;SDS011;9921;47.186;9.778;2023-06-26T01:32:17;0.00;;;0.00;;
19551;SDS011;9921;47.186;9.778;2023-06-26T01:34:44;0.00;;;0.00;;
19551;SDS011;9921;47.186;9.778;2023-06-26T01:37:11;0.00;;;0.00;;
19551;SDS011;9921;47.186;9.778;2023-06-26T01:39:38;0.00;;;0.00;;
19551;SDS011;9921;47.186;9.778;2023-06-26T01:42:05;0.00;;;0.00;;
19551;SDS011;9921;47.186;9.778;2023-06-26T01:44:35;0.00;;;0.00;;
19551;SDS011;9921;47.186;9.778;2023-06-26T01:47:08;0.00;;;0.00;;
19551;SDS011;9921;47.186;9.778;2023-06-26T01:49:42;0.00;;;0.00;;
19551;SDS011;9921;47.186;9.778;2023-06-26T01:52:16;0.00;;;0.00;;
19551;SDS011;9921;47.186;9.778;2023-06-26T01:54:49;0.00;;;0.00;;
19551;SDS011;9921;47.186;9.778;2023-06-26T01:57:20;0.00;;;0.00;;
19551;SDS011;9921;47.186;9.778;2023-06-26T01:59:50;0.00;;;0.00;;
19551;SDS011;9921;47.186;9.778;2023-06-26T02:02:18;0.00;;;0.00;;
19551;SDS011;9921;47.186;9.778;2023-06-26T02:04:45;0.00;;;0.00;;
19551;SDS011;9921;47.186;9.778;2023-06-26T02:07:13;0.00;;;0.00;;
19551;SDS011;9921;47.186;9.778;2023-06-26T02:09:40;0.00;;;0.00;;
19551;SDS011;9921;47.186;9.778;2023-06-26T02:12:07;0.00;;;0.00;;
19551;SDS011;9921;47.186;9.778;2023-06-26T02:14:34;0.00;;;0.00;;
19551;SDS011;9921;47.186;9.778;2023-06-26T02:17:03;0.00;;;0.00;;
19551;SDS011;9921;47.186;9.778;2023-06-26T02:19:30;0.00;;;0.00;;
19551;SDS011;9921;47.186;9.778;2023-06-26T02:21:57;0.00;;;0.00;;
19551;SDS011;9921;47.186;9.778;2023-06-26T02:24:24;0.00;;;0.00;;
19551;SDS011;9921;47.186;9.778;2023-06-26T02:26:52;0.00;;;0.00;;
19551;SDS011;9921;47.186;9.778;2023-06-26T02:29:19;0.00;;;0.00;;
19551;SDS011;9921;47.186;9.778;2023-06-26T02:31:46;0.00;;;0.00;;
19551;SDS011;9921;47.186;9.778;2023-06-26T02:34:15;0.00;;;0.00;;
19551;SDS011;9921;47.186;9.778;2023-06-26T02:36:42;0.00;;;0.00;;
19551;SDS011;9921;47.186;9.778;2023-06-26T02:39:09;0.00;;;0.00;;
19551;SDS011;9921;47.186;9.778;2023-06-26T02:41:35;0.00;;;0.00;;
19551;SDS011;9921;47.186;9.778;2023-06-26T02:44:02;0.00;;;0.00;;
19551;SDS011;9921;47.186;9.778;2023-06-26T02:46:30;0.00;;;0.00;;
19551;SDS011;9921;47.186;9.778;2023-06-26T02:48:56;0.00;;;0.00;;
19551;SDS011;9921;47.186;9.778;2023-06-26T02:51:25;0.00;;;0.00;;
19551;SDS011;9921;47.186;9.778;2023-06-26T02:53:51;0.00;;;0.00;;
19551;SDS011;9921;47.186;9.778;2023-06-26T02:56:18;0.00;;;0.00;;
19551;SDS011;9921;47.186;9.778;2023-06-26T02:58:45;0.00;;;0.00;;
19551;SDS011;9921;47.186;9.778;2023-06-26T03:01:12;0.00;;;0.00;;
19551;SDS011;9921;47.186;9.778;2023-06-26T03:03:40;0.00;;;0.00;;
19551;SDS011;9921;47.186;9.778;2023-06-26T03:06:07;0.00;;;0.00;;
19551;SDS011;9921;47.186;9.778;2023-06-26T03:08:36;0.00;;;0.00;;
19551;SDS011;9921;47.186;9.778;2023-06-26T03:11:04;0.00;;;0.00;;
19551;SDS011;9921;47.186;9.778;2023-06-26T03:13:31;0.00;;;0.00;;
19551;SDS011;9921;47.186;9.778;2023-06-26T03:15:58;0.00;;;0.00;;
19551;SDS011;9921;47.186;9.778;2023-06-26T03:18:25;0.00;;;0.00;;
19551;SDS011;9921;47.186;9.778;2023-06-26T03:20:52;0.00;;;0.00;;
19551;SDS011;9921;47.186;9.778;2023-06-26T03:23:20;0.00;;;0.00;;
19551;SDS011;9921;47.186;9.778;2023-06-26T03:25:48;0.00;;;0.00;;
19551;SDS011;9921;47.186;9.778;2023-06-26T03:28:15;0.00;;;0.00;;
19551;SDS011;9921;47.186;9.778;2023-06-26T03:30:42;0.00;;;0.00;;
19551;SDS011;9921;47.186;9.778;2023-06-26T03:33:09;0.00;;;0.00;;
19551;SDS011;9921;47.186;9.778;2023-06-26T03:35:37;0.00;;;0.00;;
19551;SDS011;9921;47.186;9.778;2023-06-26T03:38:04;0.00;;;0.00;;
19551;SDS011;9921;47.186;9.778;2023-06-26T03:40:31;0.00;;;0.00;;
19551;SDS011;9921;47.186;9.778;2023-06-26T03:42:59;0.00;;;0.00;;
19551;SDS011;9921;47.186;9.778;2023-06-26T03:45:26;0.00;;;0.00;;
19551;SDS011;9921;47.186;9.778;2023-06-26T03:47:53;0.00;;;0.00;;
19551;SDS011;9921;47.186;9.778;2023-06-26T03:50:19;0.00;;;0.00;;
19551;SDS011;9921;47.186;9.778;2023-06-26T03:52:46;0.00;;;0.00;;
19551;SDS011;9921;47.186;9.778;2023-06-26T03:55:15;0.00;;;0.00;;
19551;SDS011;9921;47.186;9.778;2023-06-26T03:57:42;0.00;;;0.00;;
19551;SDS011;9921;47.186;9.778;2023-06-26T04:00:11;0.00;;;0.00;;
19551;SDS011;9921;47.186;9.778;2023-06-26T04:02:39;0.00;;;0.00;;
19551;SDS011;9921;47.186;9.778;2023-06-26T04:05:06;0.00;;;0.00;;
19551;SDS011;9921;47.186;9.778;2023-06-26T04:07:32;0.00;;;0.00;;
19551;SDS011;9921;47.186;9.778;2023-06-26T04:10:00;0.00;;;0.00;;
19551;SDS011;9921;47.186;9.778;2023-06-26T04:12:27;0.00;;;0.00;;
19551;SDS011;9921;47.186;9.778;2023-06-26T04:14:54;0.00;;;0.00;;
19551;SDS011;9921;47.186;9.778;2023-06-26T04:17:22;0.00;;;0.00;;
19551;SDS011;9921;47.186;9.778;2023-06-26T04:19:49;0.00;;;0.00;;
19551;SDS011;9921;47.186;9.778;2023-06-26T04:22:16;0.00;;;0.00;;
19551;SDS011;9921;47.186;9.778;2023-06-26T04:24:43;0.00;;;0.00;;
19551;SDS011;9921;47.186;9.778;2023-06-26T04:27:11;0.00;;;0.00;;
19551;SDS011;9921;47.186;9.778;2023-06-26T04:29:39;0.00;;;0.00;;
19551;SDS011;9921;47.186;9.778;2023-06-26T04:32:06;0.00;;;0.00;;
19551;SDS011;9921;47.186;9.778;2023-06-26T04:34:34;0.00;;;0.00;;
19551;SDS011;9921;47.186;9.778;2023-06-26T04:37:06;0.00;;;0.00;;
19551;SDS011;9921;47.186;9.778;2023-06-26T04:39:34;0.00;;;0.00;;
19551;SDS011;9921;47.186;9.778;2023-06-26T04:42:03;0.00;;;0.00;;
19551;SDS011;9921;47.186;9.778;2023-06-26T04:44:30;0.00;;;0.00;;
19551;SDS011;9921;47.186;9.778;2023-06-26T04:46:57;0.00;;;0.00;;
19551;SDS011;9921;47.186;9.778;2023-06-26T04:49:24;0.00;;;0.00;;
19551;SDS011;9921;47.186;9.778;2023-06-26T04:51:54;0.00;;;0.00;;
19551;SDS011;9921;47.186;9.778;2023-06-26T04:54:21;0.00;;;0.00;;
19551;SDS011;9921;47.186;9.778;2023-06-26T04:56:48;0.00;;;0.00;;
19551;SDS011;9921;47.186;9.778;2023-06-26T04:59:15;0.00;;;0.00;;
19551;SDS011;9921;47.186;9.778;2023-06-26T05:01:42;0.00;;;0.00;;
19551;SDS011;9921;47.186;9.778;2023-06-26T05:04:13;0.00;;;0.00;;
19551;SDS011;9921;47.186;9.778;2023-06-26T05:06:40;0.00;;;0.00;;
19551;SDS011;9921;47.186;9.778;2023-06-26T05:09:08;0.00;;;0.00;;
19551;SDS011;9921;47.186;9.778;2023-06-26T05:11:35;0.00;;;0.00;;
19551;SDS011;9921;47.186;9.778;2023-06-26T05:14:02;0.00;;;0.00;;
19551;SDS011;9921;47.186;9.778;2023-06-26T05:16:32;0.00;;;0.00;;
19551;SDS011;9921;47.186;9.778;2023-06-26T05:18:59;0.00;;;0.00;;
19551;SDS011;9921;47.186;9.778;2023-06-26T05:21:27;0.00;;;0.00;;
19551;SDS011;9921;47.186;9.778;2023-06-26T05:23:56;0.00;;;0.00;;
19551;SDS011;9921;47.186;9.778;2023-06-26T05:26:25;0.00;;;0.00;;
19551;SDS011;9921;47.186;9.778;2023-06-26T05:28:53;0.00;;;0.00;;
19551;SDS011;9921;47.186;9.778;2023-06-26T05:31:20;0.00;;;0.00;;
19551;SDS011;9921;47.186;9.778;2023-06-26T05:33:48;0.00;;;0.00;;
19551;SDS011;9921;47.186;9.778;2023-06-26T05:36:16;0.00;;;0.00;;
19551;SDS011;9921;47.186;9.778;2023-06-26T05:38:44;0.00;;;0.00;;
19551;SDS011;9921;47.186;9.778;2023-06-26T05:41:12;0.00;;;0.00;;
19551;SDS011;9921;47.186;9.778;2023-06-26T05:43:41;0.00;;;0.00;;
19551;SDS011;9921;47.186;9.778;2023-06-26T05:46:07;0.00;;;0.00;;
19551;SDS011;9921;47.186;9.778;2023-06-26T05:48:34;0.00;;;0.00;;
19551;SDS011;9921;47.186;9.778;2023-06-26T05:51:01;0.00;;;0.00;;
19551;SDS011;9921;47.186;9.778;2023-06-26T05:53:29;0.00;;;0.00;;
19551;SDS011;9921;47.186;9.778;2023-06-26T05:55:56;0.00;;;0.00;;
19551;SDS011;9921;47.186;9.778;2023-06-26T05:58:24;0.00;;;0.00;;
19551;SDS011;9921;47.186;9.778;2023-06-26T06:00:54;0.00;;;0.00;;
19551;SDS011;9921;47.186;9.778;2023-06-26T06:03:22;0.00;;;0.00;;
19551;SDS011;9921;47.186;9.778;2023-06-26T06:05:49;0.00;;;0.00;;
19551;SDS011;9921;47.186;9.778;2023-06-26T06:08:16;0.00;;;0.00;;
19551;SDS011;9921;47.186;9.778;2023-06-26T06:10:43;0.00;;;0.00;;
19551;SDS011;9921;47.186;9.778;2023-06-26T06:13:10;0.00;;;0.00;;
19551;SDS011;9921;47.186;9.778;2023-06-26T06:15:37;0.00;;;0.00;;
19551;SDS011;9921;47.186;9.778;2023-06-26T06:18:05;0.00;;;0.00;;
19551;SDS011;9921;47.186;9.778;2023-06-26T06:20:32;0.00;;;0.00;;
19551;SDS011;9921;47.186;9.778;2023-06-26T06:22:59;0.00;;;0.00;;
19551;SDS011;9921;47.186;9.778;2023-06-26T06:25:25;0.00;;;0.00;;
19551;SDS011;9921;47.186;9.778;2023-06-26T06:27:52;0.00;;;0.00;;
19551;SDS011;9921;47.186;9.778;2023-06-26T06:30:19;0.00;;;0.00;;
19551;SDS011;9921;47.186;9.778;2023-06-26T06:32:46;0.00;;;0.00;;
19551;SDS011;9921;47.186;9.778;2023-06-26T06:35:17;0.00;;;0.00;;
19551;SDS011;9921;47.186;9.778;2023-06-26T06:37:44;0.00;;;0.00;;
19551;SDS011;9921;47.186;9.778;2023-06-26T06:40:11;0.00;;;0.00;;
19551;SDS011;9921;47.186;9.778;2023-06-26T06:42:38;0.00;;;0.00;;
19551;SDS011;9921;47.186;9.778;2023-06-26T06:45:05;0.00;;;0.00;;
19551;SDS011;9921;47.186;9.778;2023-06-26T06:47:33;0.00;;;0.00;;
19551;SDS011;9921;47.186;9.778;2023-06-26T06:50:00;0.00;;;0.00;;
19551;SDS011;9921;47.186;9.778;2023-06-26T06:52:34;0.00;;;0.00;;
19551;SDS011;9921;47.186;9.778;2023-06-26T06:55:02;0.00;;;0.00;;
19551;SDS011;9921;47.186;9.778;2023-06-26T06:57:30;0.00;;;0.00;;
19551;SDS011;9921;47.186;9.778;2023-06-26T07:00:01;0.00;;;0.00;;
19551;SDS011;9921;47.186;9.778;2023-06-26T07:02:29;0.00;;;0.00;;
19551;SDS011;9921;47.186;9.778;2023-06-26T07:04:56;0.00;;;0.00;;
19551;SDS011;9921;47.186;9.778;2023-06-26T07:07:23;0.00;;;0.00;;
19551;SDS011;9921;47.186;9.778;2023-06-26T07:09:55;0.00;;;0.00;;
19551;SDS011;9921;47.186;9.778;2023-06-26T07:12:23;0.00;;;0.00;;
19551;SDS011;9921;47.186;9.778;2023-06-26T07:14:50;0.10;;;0.10;;
19551;SDS011;9921;47.186;9.778;2023-06-26T07:17:18;0.00;;;0.00;;
19551;SDS011;9921;47.186;9.778;2023-06-26T07:19:45;0.00;;;0.00;;
19551;SDS011;9921;47.186;9.778;2023-06-26T07:22:12;0.00;;;0.00;;
19551;SDS011;9921;47.186;9.778;2023-06-26T07:24:39;0.00;;;0.00;;
19551;SDS011;9921;47.186;9.778;2023-06-26T07:27:07;0.00;;;0.00;;
19551;SDS011;9921;47.186;9.778;2023-06-26T07:29:35;0.00;;;0.00;;
19551;SDS011;9921;47.186;9.778;2023-06-26T07:32:02;0.00;;;0.00;;
19551;SDS011;9921;47.186;9.778;2023-06-26T07:34:29;0.00;;;0.00;;
19551;SDS011;9921;47.186;9.778;2023-06-26T07:36:56;0.10;;;0.10;;
19551;SDS011;9921;47.186;9.778;2023-06-26T07:39:23;0.00;;;0.00;;
19551;SDS011;9921;47.186;9.778;2023-06-26T07:41:50;0.00;;;0.00;;
19551;SDS011;9921;47.186;9.778;2023-06-26T07:44:18;0.10;;;0.10;;
19551;SDS011;9921;47.186;9.778;2023-06-26T07:46:45;0.10;;;0.10;;
19551;SDS011;9921;47.186;9.778;2023-06-26T07:49:12;0.10;;;0.10;;
19551;SDS011;9921;47.186;9.778;2023-06-26T07:51:39;0.10;;;0.10;;
19551;SDS011;9921;47.186;9.778;2023-06-26T07:54:05;0.10;;;0.10;;
19551;SDS011;9921;47.186;9.778;2023-06-26T07:56:34;0.10;;;0.10;;
19551;SDS011;9921;47.186;9.778;2023-06-26T07:59:19;0.10;;;0.10;;
19551;SDS011;9921;47.186;9.778;2023-06-26T08:01:47;0.10;;;0.10;;
19551;SDS011;9921;47.186;9.778;2023-06-26T08:04:14;0.03;;;0.03;;
19551;SDS011;9921;47.186;9.778;2023-06-26T08:06:41;0.10;;;0.10;;
19551;SDS011;9921;47.186;9.778;2023-06-26T08:09:08;0.10;;;0.10;;
19551;SDS011;9921;47.186;9.778;2023-06-26T08:11:34;0.10;;;0.10;;
19551;SDS011;9921;47.186;9.778;2023-06-26T08:14:01;0.10;;;0.10;;
19551;SDS011;9921;47.186;9.778;2023-06-26T08:16:30;0.10;;;0.10;;
19551;SDS011;9921;47.186;9.778;2023-06-26T08:18:57;0.10;;;0.10;;
19551;SDS011;9921;47.186;9.778;2023-06-26T08:21:24;0.10;;;0.10;;
19551;SDS011;9921;47.186;9.778;2023-06-26T08:23:51;0.10;;;0.10;;
19551;SDS011;9921;47.186;9.778;2023-06-26T08:26:17;0.10;;;0.10;;
19551;SDS011;9921;47.186;9.778;2023-06-26T08:28:44;0.10;;;0.10;;
19551;SDS011;9921;47.186;9.778;2023-06-26T08:31:11;0.10;;;0.10;;
19551;SDS011;9921;47.186;9.778;2023-06-26T08:33:39;0.10;;;0.10;;
19551;SDS011;9921;47.186;9.778;2023-06-26T08:36:06;0.10;;;0.10;;
19551;SDS011;9921;47.186;9.778;2023-06-26T08:38:33;0.10;;;0.10;;
19551;SDS011;9921;47.186;9.778;2023-06-26T08:41:00;0.10;;;0.10;;
19551;SDS011;9921;47.186;9.778;2023-06-26T08:43:27;0.10;;;0.10;;
19551;SDS011;9921;47.186;9.778;2023-06-26T08:45:56;0.10;;;0.10;;
19551;SDS011;9921;47.186;9.778;2023-06-26T08:48:23;0.10;;;0.10;;
19551;SDS011;9921;47.186;9.778;2023-06-26T08:50:53;0.10;;;0.10;;
19551;SDS011;9921;47.186;9.778;2023-06-26T08:53:23;0.10;;;0.10;;
19551;SDS011;9921;47.186;9.778;2023-06-26T08:55:59;0.10;;;0.10;;
19551;SDS011;9921;47.186;9.778;2023-06-26T08:58:27;0.13;;;0.13;;
19551;SDS011;9921;47.186;9.778;2023-06-26T09:00:54;0.10;;;0.10;;
19551;SDS011;9921;47.186;9.778;2023-06-26T09:03:22;0.20;;;0.20;;
19551;SDS011;9921;47.186;9.778;2023-06-26T09:05:51;0.10;;;0.10;;
19551;SDS011;9921;47.186;9.778;2023-06-26T09:08:19;0.10;;;0.10;;
19551;SDS011;9921;47.186;9.778;2023-06-26T09:10:46;0.10;;;0.10;;
19551;SDS011;9921;47.186;9.778;2023-06-26T09:13:12;0.10;;;0.10;;
19551;SDS011;9921;47.186;9.778;2023-06-26T09:15:41;0.10;;;0.10;;
19551;SDS011;9921;47.186;9.778;2023-06-26T09:18:09;0.10;;;0.10;;
19551;SDS011;9921;47.186;9.778;2023-06-26T09:20:36;0.10;;;0.10;;
19551;SDS011;9921;47.186;9.778;2023-06-26T09:23:05;0.10;;;0.10;;
19551;SDS011;9921;47.186;9.778;2023-06-26T09:25:32;0.10;;;0.10;;
19551;SDS011;9921;47.186;9.778;2023-06-26T09:27:59;0.10;;;0.10;;
19551;SDS011;9921;47.186;9.778;2023-06-26T09:30:26;0.10;;;0.10;;
19551;SDS011;9921;47.186;9.778;2023-06-26T09:32:53;0.20;;;0.20;;
19551;SDS011;9921;47.186;9.778;2023-06-26T09:35:20;0.17;;;0.17;;
19551;SDS011;9921;47.186;9.778;2023-06-26T09:37:47;0.10;;;0.10;;
19551;SDS011;9921;47.186;9.778;2023-06-26T09:40:16;0.10;;;0.10;;
19551;SDS011;9921;47.186;9.778;2023-06-26T09:42:42;0.10;;;0.10;;
19551;SDS011;9921;47.186;9.778;2023-06-26T09:45:17;0.10;;;0.10;;
19551;SDS011;9921;47.186;9.778;2023-06-26T09:47:45;0.20;;;0.20;;
19551;SDS011;9921;47.186;9.778;2023-06-26T09:50:20;0.10;;;0.10;;
19551;SDS011;9921;47.186;9.778;2023-06-26T09:52:50;0.10;;;0.10;;
19551;SDS011;9921;47.186;9.778;2023-06-26T09:55:19;0.10;;;0.10;;
19551;SDS011;9921;47.186;9.778;2023-06-26T09:57:47;0.10;;;0.10;;
19551;SDS011;9921;47.186;9.778;2023-06-26T10:00:16;0.10;;;0.10;;
19551;SDS011;9921;47.186;9.778;2023-06-26T10:02:43;0.10;;;0.10;;
19551;SDS011;9921;47.186;9.778;2023-06-26T10:05:11;0.10;;;0.10;;
19551;SDS011;9921;47.186;9.778;2023-06-26T10:07:38;0.10;;;0.10;;
19551;SDS011;9921;47.186;9.778;2023-06-26T10:10:07;0.20;;;0.20;;
19551;SDS011;9921;47.186;9.778;2023-06-26T10:12:37;0.20;;;0.20;;
19551;SDS011;9921;47.186;9.778;2023-06-26T10:15:04;0.20;;;0.20;;
19551;SDS011;9921;47.186;9.778;2023-06-26T10:17:37;0.13;;;0.13;;
19551;SDS011;9921;47.186;9.778;2023-06-26T10:20:08;0.20;;;0.20;;
19551;SDS011;9921;47.186;9.778;2023-06-26T10:22:40;0.10;;;0.10;;
19551;SDS011;9921;47.186;9.778;2023-06-26T10:25:10;0.10;;;0.10;;
19551;SDS011;9921;47.186;9.778;2023-06-26T10:27:42;0.10;;;0.10;;
19551;SDS011;9921;47.186;9.778;2023-06-26T10:30:22;0.17;;;0.17;;
19551;SDS011;9921;47.186;9.778;2023-06-26T10:32:53;0.10;;;0.10;;
19551;SDS011;9921;47.186;9.778;2023-06-26T10:35:21;0.10;;;0.10;;
19551;SDS011;9921;47.186;9.778;2023-06-26T10:37:48;0.10;;;0.10;;
19551;SDS011;9921;47.186;9.778;2023-06-26T10:40:21;0.10;;;0.10;;
19551;SDS011;9921;47.186;9.778;2023-06-26T10:42:52;0.13;;;0.13;;
19551;SDS011;9921;47.186;9.778;2023-06-26T10:45:33;0.10;;;0.10;;
19551;SDS011;9921;47.186;9.778;2023-06-26T10:48:00;0.20;;;0.20;;
19551;SDS011;9921;47.186;9.778;2023-06-26T10:50:29;0.22;;;0.22;;
19551;SDS011;9921;47.186;9.778;2023-06-26T10:53:13;0.10;;;0.10;;
19551;SDS011;9921;47.186;9.778;2023-06-26T10:55:54;0.20;;;0.20;;
19551;SDS011;9921;47.186;9.778;2023-06-26T10:58:42;0.10;;;0.10;;
19551;SDS011;9921;47.186;9.778;2023-06-26T11:01:16;0.10;;;0.10;;
19551;SDS011;9921;47.186;9.778;2023-06-26T11:03:45;0.20;;;0.20;;
19551;SDS011;9921;47.186;9.778;2023-06-26T11:06:15;0.13;;;0.13;;
19551;SDS011;9921;47.186;9.778;2023-06-26T11:08:44;0.20;;;0.20;;
19551;SDS011;9921;47.186;9.778;2023-06-26T11:11:12;0.20;;;0.20;;
19551;SDS011;9921;47.186;9.778;2023-06-26T11:13:40;0.20;;;0.20;;
19551;SDS011;9921;47.186;9.778;2023-06-26T11:16:07;0.10;;;0.10;;
19551;SDS011;9921;47.186;9.778;2023-06-26T11:18:34;0.13;;;0.13;;
19551;SDS011;9921;47.186;9.778;2023-06-26T11:21:05;0.20;;;0.20;;
19551;SDS011;9921;47.186;9.778;2023-06-26T11:23:32;0.20;;;0.20;;
19551;SDS011;9921;47.186;9.778;2023-06-26T11:26:14;0.10;;;0.10;;
19551;SDS011;9921;47.186;9.778;2023-06-26T11:28:50;0.17;;;0.17;;
19551;SDS011;9921;47.186;9.778;2023-06-26T11:31:29;0.20;;;0.20;;
19551;SDS011;9921;47.186;9.778;2023-06-26T11:33:57;0.20;;;0.20;;
19551;SDS011;9921;47.186;9.778;2023-06-26T11:36:25;0.10;;;0.10;;
19551;SDS011;9921;47.186;9.778;2023-06-26T11:38:53;0.10;;;0.10;;
19551;SDS011;9921;47.186;9.778;2023-06-26T11:41:21;0.20;;;0.20;;
19551;SDS011;9921;47.186;9.778;2023-06-26T11:43:49;0.20;;;0.20;;
19551;SDS011;9921;47.186;9.778;2023-06-26T11:46:18;0.20;;;0.20;;
19551;SDS011;9921;47.186;9.778;2023-06-26T11:48:46;0.20;;;0.20;;
19551;SDS011;9921;47.186;9.778;2023-06-26T11:51:13;0.20;;;0.20;;
19551;SDS011;9921;47.186;9.778;2023-06-26T11:53:40;0.20;;;0.20;;
19551;SDS011;9921;47.186;9.778;2023-06-26T11:56:08;0.20;;;0.20;;
19551;SDS011;9921;47.186;9.778;2023-06-26T11:58:36;0.20;;;0.20;;
19551;SDS011;9921;47.186;9.778;2023-06-26T12:01:04;0.17;;;0.17;;
19551;SDS011;9921;47.186;9.778;2023-06-26T12:03:32;0.20;;;0.20;;
19551;SDS011;9921;47.186;9.778;2023-06-26T12:05:59;0.10;;;0.10;;
19551;SDS011;9921;47.186;9.778;2023-06-26T12:08:31;0.20;;;0.20;;
19551;SDS011;9921;47.186;9.778;2023-06-26T12:10:58;0.10;;;0.10;;
19551;SDS011;9921;47.186;9.778;2023-06-26T12:13:25;0.10;;;0.10;;
19551;SDS011;9921;47.186;9.778;2023-06-26T12:15:52;0.10;;;0.10;;
19551;SDS011;9921;47.186;9.778;2023-06-26T12:18:20;0.10;;;0.10;;
19551;SDS011;9921;47.186;9.778;2023-06-26T12:20:50;0.20;;;0.20;;
19551;SDS011;9921;47.186;9.778;2023-06-26T12:23:18;0.10;;;0.10;;
19551;SDS011;9921;47.186;9.778;2023-06-26T12:25:44;0.10;;;0.10;;
19551;SDS011;9921;47.186;9.778;2023-06-26T12:28:15;0.10;;;0.10;;
19551;SDS011;9921;47.186;9.778;2023-06-26T12:30:45;0.20;;;0.20;;
19551;SDS011;9921;47.186;9.778;2023-06-26T12:33:13;0.15;;;0.15;;
19551;SDS011;9921;47.186;9.778;2023-06-26T12:35:42;0.20;;;0.20;;
19551;SDS011;9921;47.186;9.778;2023-06-26T12:38:09;0.17;;;0.17;;
19551;SDS011;9921;47.186;9.778;2023-06-26T12:40:44;0.20;;;0.20;;
19551;SDS011;9921;47.186;9.778;2023-06-26T12:43:12;0.20;;;0.20;;
19551;SDS011;9921;47.186;9.778;2023-06-26T12:45:53;0.20;;;0.20;;
19551;SDS011;9921;47.186;9.778;2023-06-26T12:48:20;0.20;;;0.20;;
19551;SDS011;9921;47.186;9.778;2023-06-26T12:50:49;0.20;;;0.20;;
19551;SDS011;9921;47.186;9.778;2023-06-26T12:53:17;0.10;;;0.10;;
19551;SDS011;9921;47.186;9.778;2023-06-26T12:55:44;0.20;;;0.20;;
19551;SDS011;9921;47.186;9.778;2023-06-26T12:58:11;0.20;;;0.20;;
19551;SDS011;9921;47.186;9.778;2023-06-26T13:00:38;0.10;;;0.10;;
19551;SDS011;9921;47.186;9.778;2023-06-26T13:03:06;0.20;;;0.20;;
19551;SDS011;9921;47.186;9.778;2023-06-26T13:05:33;0.20;;;0.20;;
19551;SDS011;9921;47.186;9.778;2023-06-26T13:08:01;0.20;;;0.20;;
19551;SDS011;9921;47.186;9.778;2023-06-26T13:10:28;0.20;;;0.20;;
19551;SDS011;9921;47.186;9.778;2023-06-26T13:12:55;0.10;;;0.10;;
19551;SDS011;9921;47.186;9.778;2023-06-26T13:15:22;0.20;;;0.20;;
19551;SDS011;9921;47.186;9.778;2023-06-26T13:17:49;0.17;;;0.17;;
19551;SDS011;9921;47.186;9.778;2023-06-26T13:20:16;0.20;;;0.20;;
19551;SDS011;9921;47.186;9.778;2023-06-26T13:22:43;0.20;;;0.20;;
19551;SDS011;9921;47.186;9.778;2023-06-26T13:25:12;0.10;;;0.10;;
19551;SDS011;9921;47.186;9.778;2023-06-26T13:27:39;0.20;;;0.20;;
19551;SDS011;9921;47.186;9.778;2023-06-26T13:30:07;0.10;;;0.10;;
19551;SDS011;9921;47.186;9.778;2023-06-26T13:32:34;0.10;;;0.10;;
19551;SDS011;9921;47.186;9.778;2023-06-26T13:35:01;0.20;;;0.20;;
19551;SDS011;9921;47.186;9.778;2023-06-26T13:37:31;0.15;;;0.15;;
19551;SDS011;9921;47.186;9.778;2023-06-26T13:39:59;0.17;;;0.17;;
19551;SDS011;9921;47.186;9.778;2023-06-26T13:42:28;0.10;;;0.10;;
19551;SDS011;9921;47.186;9.778;2023-06-26T13:44:55;0.20;;;0.20;;
19551;SDS011;9921;47.186;9.778;2023-06-26T13:47:22;0.20;;;0.20;;
19551;SDS011;9921;47.186;9.778;2023-06-26T13:49:49;0.20;;;0.20;;
19551;SDS011;9921;47.186;9.778;2023-06-26T13:52:16;0.10;;;0.10;;
19551;SDS011;9921;47.186;9.778;2023-06-26T13:54:43;0.20;;;0.20;;
19551;SDS011;9921;47.186;9.778;2023-06-26T13:57:10;0.15;;;0.15;;
19551;SDS011;9921;47.186;9.778;2023-06-26T13:59:38;0.10;;;0.10;;
19551;SDS011;9921;47.186;9.778;2023-06-26T14:02:05;0.20;;;0.20;;
19551;SDS011;9921;47.186;9.778;2023-06-26T14:04:33;0.10;;;0.10;;
19551;SDS011;9921;47.186;9.778;2023-06-26T14:07:00;0.10;;;0.10;;
19551;SDS011;9921;47.186;9.778;2023-06-26T14:09:27;0.20;;;0.20;;
19551;SDS011;9921;47.186;9.778;2023-06-26T14:11:53;0.20;;;0.20;;
19551;SDS011;9921;47.186;9.778;2023-06-26T14:14:20;0.15;;;0.15;;
19551;SDS011;9921;47.186;9.778;2023-06-26T14:16:49;0.20;;;0.20;;
19551;SDS011;9921;47.186;9.778;2023-06-26T14:19:16;0.20;;;0.20;;
19551;SDS011;9921;47.186;9.778;2023-06-26T14:21:43;0.10;;;0.10;;
19551;SDS011;9921;47.186;9.778;2023-06-26T14:24:10;0.10;;;0.10;;
19551;SDS011;9921;47.186;9.778;2023-06-26T14:26:37;0.15;;;0.15;;
19551;SDS011;9921;47.186;9.778;2023-06-26T14:29:04;0.10;;;0.10;;
19551;SDS011;9921;47.186;9.778;2023-06-26T14:31:30;0.20;;;0.20;;
19551;SDS011;9921;47.186;9.778;2023-06-26T14:33:59;0.10;;;0.10;;
19551;SDS011;9921;47.186;9.778;2023-06-26T14:36:37;0.10;;;0.10;;
19551;SDS011;9921;47.186;9.778;2023-06-26T14:39:04;0.10;;;0.10;;
19551;SDS011;9921;47.186;9.778;2023-06-26T14:41:31;0.10;;;0.10;;
19551;SDS011;9921;47.186;9.778;2023-06-26T14:43:58;0.17;;;0.17;;
19551;SDS011;9921;47.186;9.778;2023-06-26T14:46:25;0.10;;;0.10;;
19551;SDS011;9921;47.186;9.778;2023-06-26T14:48:52;0.20;;;0.20;;
19551;SDS011;9921;47.186;9.778;2023-06-26T14:51:22;0.15;;;0.15;;
19551;SDS011;9921;47.186;9.778;2023-06-26T14:53:49;0.20;;;0.20;;
19551;SDS011;9921;47.186;9.778;2023-06-26T14:56:16;0.13;;;0.13;;
19551;SDS011;9921;47.186;9.778;2023-06-26T14:58:43;0.20;;;0.20;;
19551;SDS011;9921;47.186;9.778;2023-06-26T15:01:12;0.10;;;0.10;;
19551;SDS011;9921;47.186;9.778;2023-06-26T15:03:40;0.20;;;0.20;;
19551;SDS011;9921;47.186;9.778;2023-06-26T15:06:07;0.10;;;0.10;;